Time;durP1;ratioP1;P1;durP2;ratioP2;P2;SDS_P1;SDS_P2;PMS_P1;PMS_P2;Temp;Humidity;BMP_temperature;BMP_pressure;BME280_temperature;BME280_humidity;BME280_pressure;Samples;Min_cycle;Max_cycle;Signal;HPM_P1;HPM_P2
2022/08/14 00:01:15;;;;;;;3.10;2.80;;;16.90;97.70;;;;;;5033875;28;20465;-70
2022/08/14 00:03:41;;;;;;;2.60;2.20;;;16.80;97.80;;;;;;5032816;28;20473;-70
2022/08/14 00:06:09;;;;;;;3.03;2.40;;;16.80;97.70;;;;;;5033635;28;20994;-69
2022/08/14 00:08:37;;;;;;;2.57;2.37;;;16.80;97.70;;;;;;5033543;28;20519;-69
2022/08/14 00:11:04;;;;;;;3.07;2.70;;;16.80;97.70;;;;;;5033119;28;20526;-70
2022/08/14 00:13:31;;;;;;;2.70;2.20;;;16.80;97.60;;;;;;5033107;28;20491;-70
2022/08/14 00:16:00;;;;;;;2.80;2.50;;;16.70;97.90;;;;;;5033196;28;20522;-69
2022/08/14 00:18:28;;;;;;;3.20;2.67;;;16.70;97.90;;;;;;5033314;28;20481;-70
2022/08/14 00:20:56;;;;;;;2.60;2.40;;;16.60;98.00;;;;;;5033108;28;20519;-69
2022/08/14 00:23:22;;;;;;;2.47;2.27;;;16.50;98.00;;;;;;5033010;28;20516;-69
2022/08/14 00:25:52;;;;;;;2.80;2.23;;;16.50;97.90;;;;;;5033122;28;20461;-69
2022/08/14 00:28:24;;;;;;;2.50;2.30;;;16.50;97.80;;;;;;5032985;28;20562;-70
2022/08/14 00:30:52;;;;;;;2.77;2.57;;;16.50;97.80;;;;;;5033215;28;20967;-69
2022/08/14 00:33:19;;;;;;;3.50;2.77;;;16.50;98.00;;;;;;5032669;28;20468;-69
2022/08/14 00:35:46;;;;;;;2.43;2.23;;;16.50;98.00;;;;;;5031766;28;20475;-69
2022/08/14 00:38:13;;;;;;;2.40;2.07;;;16.40;98.00;;;;;;5032673;28;20587;-67
2022/08/14 00:40:39;;;;;;;2.70;2.50;;;16.40;98.10;;;;;;5033003;28;20464;-69
2022/08/14 00:43:08;;;;;;;2.93;2.60;;;16.30;98.00;;;;;;5032887;28;20471;-69
2022/08/14 00:45:35;;;;;;;3.13;2.90;;;16.30;98.20;;;;;;5032426;28;20468;-69
2022/08/14 00:48:02;;;;;;;3.23;2.70;;;16.30;98.30;;;;;;5032795;28;20485;-69
2022/08/14 00:50:30;;;;;;;3.20;2.70;;;16.30;98.30;;;;;;5032659;28;20461;-70
2022/08/14 00:52:58;;;;;;;2.40;2.20;;;16.30;98.30;;;;;;5032797;28;20496;-70
2022/08/14 00:55:27;;;;;;;2.60;2.17;;;16.30;98.40;;;;;;5032106;28;20472;-69
2022/08/14 01:00:37;;;;;;;2.63;2.43;;;16.20;98.50;;;;;;5031452;28;20460;-68
2022/08/14 01:03:04;;;;;;;2.17;2.03;;;16.10;98.30;;;;;;5032675;28;20549;-69
2022/08/14 01:05:31;;;;;;;2.77;2.53;;;16.10;98.40;;;;;;5032110;28;20464;-69
2022/08/14 01:07:58;;;;;;;2.50;2.30;;;16.10;98.50;;;;;;5032002;28;20485;-70
2022/08/14 01:10:49;;;;;;;2.60;2.40;;;16.10;98.50;;;;;;5032622;28;20460;-70
2022/08/14 01:13:16;;;;;;;2.57;2.30;;;16.10;98.60;;;;;;5032072;28;20460;-70
2022/08/14 01:15:44;;;;;;;4.90;2.47;;;16.00;98.60;;;;;;5032010;28;20500;-68
2022/08/14 01:21:07;;;;;;;2.40;2.20;;;16.00;98.90;;;;;;5032572;28;20456;-69
2022/08/14 01:23:39;;;;;;;3.30;2.90;;;16.00;99.00;;;;;;5031596;28;20460;-69
2022/08/14 01:26:07;;;;;;;2.80;2.60;;;15.90;99.00;;;;;;5032221;28;20957;-70
2022/08/14 01:28:36;;;;;;;2.80;2.60;;;15.90;99.00;;;;;;5032101;28;20468;-70
2022/08/14 01:31:08;;;;;;;2.57;2.37;;;15.90;98.90;;;;;;5031902;28;21122;-70
2022/08/14 01:33:39;;;;;;;2.27;2.07;;;15.80;99.10;;;;;;5031663;28;20460;-69
2022/08/14 01:36:08;;;;;;;2.60;2.40;;;15.80;99.20;;;;;;5031930;28;20557;-69
2022/08/14 01:38:37;;;;;;;2.60;2.40;;;15.80;99.10;;;;;;5031849;28;20567;-69
2022/08/14 01:41:06;;;;;;;2.70;2.40;;;15.80;99.00;;;;;;5031885;28;20469;-70
2022/08/14 01:43:37;;;;;;;3.17;2.97;;;15.70;99.00;;;;;;5031423;28;20898;-70
2022/08/14 01:46:05;;;;;;;2.70;2.50;;;15.70;99.20;;;;;;5031984;28;20563;-68
2022/08/14 01:48:32;;;;;;;3.10;2.80;;;15.70;99.40;;;;;;5031701;28;20515;-68
2022/08/14 01:51:01;;;;;;;2.60;2.40;;;15.70;99.60;;;;;;5031673;28;20475;-69
2022/08/14 01:53:30;;;;;;;3.07;2.77;;;15.60;99.60;;;;;;5031147;28;20449;-69
2022/08/14 01:56:02;;;;;;;3.03;2.73;;;15.60;99.60;;;;;;5031634;28;20839;-69
2022/08/14 01:58:29;;;;;;;2.53;2.33;;;15.60;99.70;;;;;;5031270;28;20492;-69
2022/08/14 02:00:57;;;;;;;3.17;2.87;;;15.60;99.70;;;;;;5031643;28;20457;-69
2022/08/14 02:03:25;;;;;;;3.13;2.53;;;15.60;99.70;;;;;;5030648;28;20963;-69
2022/08/14 02:05:57;;;;;;;2.60;2.40;;;15.60;99.70;;;;;;5031550;28;20467;-69
2022/08/14 02:08:25;;;;;;;2.90;2.67;;;15.50;99.70;;;;;;5031427;28;20484;-69
2022/08/14 02:11:15;;;;;;;2.50;2.30;;;15.50;99.90;;;;;;5031070;28;20948;-69
2022/08/14 02:13:45;;;;;;;2.50;2.30;;;15.40;99.90;;;;;;5030575;28;20462;-69
2022/08/14 02:16:12;;;;;;;3.20;3.00;;;15.40;99.90;;;;;;5031101;28;20915;-68
2022/08/14 02:18:39;;;;;;;2.40;2.20;;;15.40;99.90;;;;;;5030873;28;20481;-69
2022/08/14 02:21:06;;;;;;;3.00;2.70;;;15.40;99.90;;;;;;5031166;28;20530;-70
2022/08/14 02:23:33;;;;;;;3.10;2.83;;;15.40;99.90;;;;;;5030517;28;20465;-69
2022/08/14 02:26:01;;;;;;;2.60;2.40;;;15.40;99.90;;;;;;5030835;28;20844;-70
2022/08/14 02:28:30;;;;;;;2.70;2.50;;;15.40;99.90;;;;;;5030790;28;20481;-70
2022/08/14 02:30:58;;;;;;;2.70;2.50;;;15.30;99.90;;;;;;5030686;28;20527;-69
2022/08/14 02:33:27;;;;;;;3.00;2.80;;;15.30;99.90;;;;;;5030223;28;20469;-68
2022/08/14 02:35:54;;;;;;;5.20;3.20;;;15.30;99.90;;;;;;5030732;28;20467;-70
2022/08/14 02:38:21;;;;;;;2.60;2.40;;;15.30;99.90;;;;;;5030470;28;20861;-70
2022/08/14 02:40:47;;;;;;;3.07;2.77;;;15.20;99.90;;;;;;5030633;28;20461;-69
2022/08/14 02:43:14;;;;;;;3.00;2.70;;;15.20;99.90;;;;;;5030424;28;20464;-69
2022/08/14 02:45:41;;;;;;;2.40;2.20;;;15.20;99.90;;;;;;5030153;28;20535;-68
2022/08/14 02:48:09;;;;;;;3.17;2.87;;;15.20;99.90;;;;;;5030241;28;20481;-68
2022/08/14 02:50:37;;;;;;;3.83;2.37;;;15.20;99.90;;;;;;5030479;28;20515;-68
2022/08/14 02:53:04;;;;;;;2.73;2.30;;;15.20;99.90;;;;;;5030702;28;20472;-67
2022/08/14 02:55:31;;;;;;;3.13;2.80;;;15.10;99.90;;;;;;5029898;28;20461;-69
2022/08/14 02:57:58;;;;;;;3.03;2.43;;;15.10;99.90;;;;;;5030594;28;20477;-69
2022/08/14 03:00:26;;;;;;;3.67;2.70;;;15.10;99.90;;;;;;5029865;28;20516;-69
2022/08/14 03:02:52;;;;;;;3.67;2.97;;;15.10;99.90;;;;;;5030232;28;20968;-69
2022/08/14 03:05:22;;;;;;;2.87;2.67;;;15.10;99.90;;;;;;5029897;28;20461;-68
2022/08/14 03:07:49;;;;;;;2.90;2.63;;;15.10;99.90;;;;;;5030224;28;20508;-69
2022/08/14 03:10:15;;;;;;;3.00;2.70;;;15.00;99.90;;;;;;5030386;28;20488;-67
2022/08/14 03:12:42;;;;;;;3.30;2.83;;;15.00;99.90;;;;;;5029785;28;20603;-68
2022/08/14 03:15:12;;;;;;;3.73;3.43;;;15.00;99.90;;;;;;5030249;28;20510;-69
2022/08/14 03:17:39;;;;;;;3.23;2.93;;;15.00;99.90;;;;;;5030274;28;20569;-68
2022/08/14 03:20:06;;;;;;;3.40;2.43;;;14.90;99.90;;;;;;5030286;28;20543;-69
2022/08/14 03:22:34;;;;;;;3.43;2.57;;;14.90;99.90;;;;;;5030217;28;20957;-69
2022/08/14 03:25:01;;;;;;;3.37;3.00;;;14.90;99.90;;;;;;5029450;28;20473;-69
2022/08/14 03:27:30;;;;;;;2.63;2.43;;;14.90;99.90;;;;;;5030143;28;20481;-67
2022/08/14 03:29:57;;;;;;;2.83;2.63;;;14.90;99.90;;;;;;5029850;28;20844;-68
2022/08/14 03:32:24;;;;;;;4.37;3.27;;;14.90;99.90;;;;;;5030254;28;20948;-69
2022/08/14 03:34:51;;;;;;;2.77;2.57;;;14.80;99.90;;;;;;5029340;28;20557;-69
2022/08/14 03:37:17;;;;;;;3.40;3.10;;;14.80;99.90;;;;;;5030322;28;20859;-67
2022/08/14 03:39:45;;;;;;;2.80;2.60;;;14.80;99.90;;;;;;5029903;28;20485;-69
2022/08/14 03:42:12;;;;;;;2.57;2.37;;;14.80;99.90;;;;;;5030221;28;20468;-69
2022/08/14 03:44:40;;;;;;;2.73;2.53;;;14.70;99.90;;;;;;5029704;28;20838;-69
2022/08/14 03:47:07;;;;;;;2.80;2.60;;;14.70;99.90;;;;;;5029915;28;20492;-69
2022/08/14 03:49:34;;;;;;;2.57;2.37;;;14.70;99.90;;;;;;5030261;28;20464;-69
2022/08/14 03:52:03;;;;;;;4.37;2.70;;;14.70;99.90;;;;;;5029858;28;20469;-68
2022/08/14 03:54:34;;;;;;;3.53;2.90;;;14.70;99.90;;;;;;5029554;28;20460;-68
2022/08/14 03:57:03;;;;;;;3.23;2.93;;;14.70;99.90;;;;;;5030038;28;20495;-68
2022/08/14 03:59:30;;;;;;;3.63;3.00;;;14.70;99.90;;;;;;5029654;28;20999;-68
2022/08/14 04:01:57;;;;;;;3.10;2.83;;;14.60;99.90;;;;;;5029800;28;20572;-69
2022/08/14 04:04:23;;;;;;;3.10;2.80;;;14.60;99.90;;;;;;5029244;28;20535;-68
2022/08/14 04:06:50;;;;;;;2.97;2.70;;;14.60;99.90;;;;;;5029832;28;20489;-69
2022/08/14 04:09:17;;;;;;;2.60;2.40;;;14.60;99.90;;;;;;5029921;28;20515;-68
2022/08/14 04:11:45;;;;;;;2.83;2.63;;;14.60;99.90;;;;;;5033343;28;20559;-68
2022/08/14 04:14:13;;;;;;;2.80;2.60;;;14.50;99.90;;;;;;5033242;28;20552;-68
2022/08/14 04:16:45;;;;;;;2.97;2.73;;;14.50;99.90;;;;;;5033168;28;20568;-69
2022/08/14 04:19:14;;;;;;;3.30;3.00;;;14.50;99.90;;;;;;5033546;28;20542;-69
2022/08/14 04:21:41;;;;;;;3.17;2.87;;;14.50;99.90;;;;;;5033070;28;20965;-70
2022/08/14 04:24:08;;;;;;;2.83;2.63;;;14.50;99.90;;;;;;5032829;28;20952;-69
2022/08/14 04:26:34;;;;;;;3.70;3.40;;;14.50;99.90;;;;;;5033201;28;20476;-70
2022/08/14 04:29:02;;;;;;;2.83;2.50;;;14.50;99.90;;;;;;5032941;28;20464;-68
2022/08/14 04:31:30;;;;;;;3.30;3.00;;;14.50;99.90;;;;;;5033270;28;20464;-70
2022/08/14 04:33:57;;;;;;;3.47;3.17;;;14.50;99.90;;;;;;5032389;28;20891;-69
2022/08/14 04:36:23;;;;;;;3.10;2.80;;;14.50;99.90;;;;;;5033040;28;20465;-67
2022/08/14 04:44:18;;;;;;;2.80;2.60;;;14.50;99.90;;;;;;5032330;28;20959;-68
2022/08/14 04:49:28;;;;;;;3.23;2.90;;;14.50;99.90;;;;;;5031739;28;20449;-68
2022/08/14 04:51:54;;;;;;;2.80;2.57;;;14.60;99.90;;;;;;5032814;28;20468;-68
2022/08/14 04:54:21;;;;;;;3.60;3.30;;;14.60;99.90;;;;;;5032482;28;20461;-69
2022/08/14 04:56:48;;;;;;;2.70;2.50;;;14.70;99.90;;;;;;5032438;28;20477;-69
2022/08/14 04:59:14;;;;;;;2.97;2.67;;;14.70;99.90;;;;;;5033004;28;20464;-69
2022/08/14 05:01:43;;;;;;;3.00;2.80;;;14.80;99.90;;;;;;5032303;28;20469;-67
2022/08/14 05:04:12;;;;;;;4.70;2.80;;;14.80;99.90;;;;;;5032172;28;20559;-69
2022/08/14 05:06:38;;;;;;;3.00;2.70;;;14.90;99.90;;;;;;5032278;28;20568;-69
2022/08/14 05:09:06;;;;;;;2.87;2.67;;;15.00;99.90;;;;;;5032662;28;20464;-68
2022/08/14 05:11:34;;;;;;;3.13;2.83;;;15.10;99.90;;;;;;5069602;23;20499;-69
2022/08/14 05:14:01;;;;;;;3.90;2.63;;;15.30;99.90;;;;;;5031549;28;20460;-68
2022/08/14 05:16:30;;;;;;;3.20;2.90;;;15.40;99.90;;;;;;5032538;28;20480;-68
2022/08/14 05:18:57;;;;;;;3.53;2.50;;;15.50;99.90;;;;;;5032124;28;20980;-67
2022/08/14 05:21:27;;;;;;;3.20;2.80;;;15.50;99.90;;;;;;5031558;28;20488;-67
2022/08/14 05:23:54;;;;;;;4.20;3.77;;;15.60;99.90;;;;;;5031664;28;20456;-67
2022/08/14 05:26:21;;;;;;;3.40;3.10;;;15.70;99.90;;;;;;5031797;28;20453;-67
2022/08/14 05:28:48;;;;;;;4.37;3.67;;;15.70;99.90;;;;;;5031890;28;20210;-67
2022/08/14 05:31:17;;;;;;;2.90;2.70;;;15.80;99.90;;;;;;5032265;28;20468;-67
2022/08/14 05:33:45;;;;;;;3.27;3.07;;;15.80;99.90;;;;;;5031924;28;20514;-66
2022/08/14 05:36:14;;;;;;;3.37;3.10;;;15.90;99.90;;;;;;5031820;28;20464;-67
2022/08/14 05:38:43;;;;;;;3.20;2.73;;;15.90;99.90;;;;;;5032262;28;20468;-70
2022/08/14 05:41:12;;;;;;;3.10;2.90;;;15.90;99.90;;;;;;5031803;28;20485;-69
2022/08/14 05:43:39;;;;;;;3.97;2.70;;;16.00;99.90;;;;;;5031702;28;21162;-70
2022/08/14 05:46:07;;;;;;;3.20;2.90;;;15.90;99.90;;;;;;5031702;28;20465;-70
2022/08/14 05:48:33;;;;;;;3.17;2.90;;;16.00;99.90;;;;;;5032074;28;20476;-70
2022/08/14 05:51:00;;;;;;;2.67;2.47;;;16.00;99.90;;;;;;5032198;28;20820;-70
2022/08/14 05:53:28;;;;;;;3.67;2.97;;;16.10;99.90;;;;;;5031127;28;20461;-70
2022/08/14 05:55:57;;;;;;;2.87;2.67;;;16.10;99.90;;;;;;5031883;28;20508;-71
2022/08/14 05:58:25;;;;;;;3.75;2.88;;;16.20;99.90;;;;;;5028363;28;20456;-70
2022/08/14 06:00:53;;;;;;;3.87;3.47;;;16.30;99.90;;;;;;5030385;28;20329;-68
2022/08/14 06:03:22;;;;;;;2.93;2.73;;;16.40;99.90;;;;;;5030732;28;20523;-68
2022/08/14 06:05:51;;;;;;;3.77;3.47;;;16.40;99.90;;;;;;5031460;28;20445;-68
2022/08/14 06:08:21;;;;;;;2.80;2.60;;;16.60;99.90;;;;;;5031368;28;20858;-68
2022/08/14 06:10:49;;;;;;;3.50;2.87;;;16.70;99.90;;;;;;5031383;28;20480;-68
2022/08/14 06:13:17;;;;;;;3.00;2.80;;;16.80;99.90;;;;;;5030833;28;20964;-68
2022/08/14 06:15:44;;;;;;;2.90;2.47;;;16.90;99.90;;;;;;5030945;28;21107;-71
2022/08/14 06:18:11;;;;;;;2.90;2.60;;;17.00;99.90;;;;;;5030917;28;20489;-70
2022/08/14 06:20:38;;;;;;;7.10;3.53;;;17.10;99.90;;;;;;5031091;28;20528;-71
2022/08/14 06:23:05;;;;;;;3.10;2.80;;;17.20;99.90;;;;;;5031212;28;20863;-71
2022/08/14 06:25:32;;;;;;;3.03;2.80;;;17.30;99.90;;;;;;5030719;28;20465;-70
2022/08/14 06:27:59;;;;;;;2.80;2.60;;;17.30;99.90;;;;;;5030839;28;20495;-70
2022/08/14 06:30:30;;;;;;;3.40;2.90;;;17.50;99.90;;;;;;5030822;28;20460;-70
2022/08/14 06:32:57;;;;;;;3.53;3.07;;;17.60;99.90;;;;;;5030325;28;20461;-70
2022/08/14 06:35:24;;;;;;;2.77;2.57;;;17.80;99.90;;;;;;5029715;28;20476;-71
2022/08/14 06:37:53;;;;;;;3.00;2.67;;;17.90;99.90;;;;;;5030695;28;20535;-68
2022/08/14 06:40:22;;;;;;;2.90;2.70;;;18.00;99.90;;;;;;5030512;28;21054;-68
2022/08/14 06:42:49;;;;;;;3.50;3.20;;;18.10;99.90;;;;;;5030860;28;20564;-68
2022/08/14 06:45:16;;;;;;;5.77;2.93;;;18.30;99.90;;;;;;5029681;28;20961;-68
2022/08/14 06:47:46;;;;;;;2.80;2.60;;;18.40;99.90;;;;;;5030870;28;20488;-68
2022/08/14 06:50:16;;;;;;;2.73;2.53;;;18.50;99.90;;;;;;5030290;28;20465;-68
2022/08/14 06:52:44;;;;;;;3.23;2.80;;;18.60;99.90;;;;;;5030785;28;20471;-68
2022/08/14 06:55:12;;;;;;;3.03;2.83;;;18.70;99.90;;;;;;5029205;28;20558;-68
2022/08/14 06:57:41;;;;;;;3.83;2.83;;;18.80;99.90;;;;;;5030181;28;20859;-68
2022/08/14 07:00:10;;;;;;;2.70;2.50;;;19.00;98.80;;;;;;5030074;28;21027;-68
2022/08/14 07:08:11;;;;;;;2.87;2.67;;;19.40;97.80;;;;;;5028781;28;20552;-68
2022/08/14 07:10:38;;;;;;;2.73;2.30;;;19.60;97.90;;;;;;5030574;28;20464;-68
2022/08/14 07:13:05;;;;;;;2.83;2.63;;;19.70;97.40;;;;;;5029514;28;20484;-68
2022/08/14 07:15:33;;;;;;;2.57;2.27;;;19.80;96.80;;;;;;5029284;28;20469;-68
2022/08/14 07:18:00;;;;;;;2.73;2.53;;;19.90;95.90;;;;;;5030306;28;20493;-68
2022/08/14 07:20:28;;;;;;;2.60;2.37;;;20.00;95.90;;;;;;5029778;28;20485;-68
2022/08/14 07:22:57;;;;;;;2.40;2.20;;;20.10;95.80;;;;;;5030396;28;20464;-68
2022/08/14 07:25:24;;;;;;;3.07;2.70;;;20.30;95.60;;;;;;5028898;28;20467;-68
2022/08/14 07:27:50;;;;;;;3.17;2.67;;;20.40;95.50;;;;;;5030137;28;20484;-68
2022/08/14 07:30:17;;;;;;;2.27;2.00;;;20.50;95.70;;;;;;5029688;28;20468;-68
2022/08/14 07:32:44;;;;;;;3.67;2.63;;;20.60;95.30;;;;;;5024728;28;20465;-68
2022/08/14 07:35:11;;;;;;;3.70;2.60;;;20.80;94.50;;;;;;5028026;28;20461;-68
2022/08/14 07:37:39;;;;;;;3.00;2.80;;;20.90;94.50;;;;;;5029965;28;20485;-68
2022/08/14 07:40:07;;;;;;;2.67;2.47;;;20.90;94.40;;;;;;5029001;28;21001;-68
2022/08/14 07:42:34;;;;;;;2.90;2.60;;;21.00;94.60;;;;;;5029709;28;20462;-68
2022/08/14 07:45:01;;;;;;;2.53;2.23;;;21.20;95.10;;;;;;5029221;28;20462;-68
2022/08/14 07:47:28;;;;;;;2.57;2.37;;;21.30;95.10;;;;;;5033468;28;20844;-68
2022/08/14 07:50:00;;;;;;;3.20;2.73;;;21.50;95.30;;;;;;5033637;28;20461;-68
2022/08/14 07:52:27;;;;;;;3.10;2.00;;;21.60;94.90;;;;;;5033436;28;20524;-68
2022/08/14 07:54:56;;;;;;;2.20;2.00;;;21.70;93.50;;;;;;5032861;28;20468;-68
2022/08/14 07:57:23;;;;;;;2.90;2.60;;;21.80;93.50;;;;;;5033280;28;20507;-68
2022/08/14 07:59:50;;;;;;;2.20;2.00;;;22.00;93.10;;;;;;5034345;28;20465;-68
2022/08/14 08:02:17;;;;;;;2.50;2.30;;;22.10;93.10;;;;;;5032870;28;21028;-68
2022/08/14 08:04:45;;;;;;;2.60;2.40;;;22.20;93.30;;;;;;5032393;28;20531;-68
2022/08/14 08:07:15;;;;;;;2.30;2.10;;;22.30;93.60;;;;;;5029663;28;20490;-68
2022/08/14 08:09:44;;;;;;;2.30;2.13;;;22.40;93.10;;;;;;5033449;28;20465;-68
2022/08/14 08:12:14;;;;;;;2.37;2.17;;;22.50;92.80;;;;;;5033353;28;20580;-69
2022/08/14 08:14:42;;;;;;;2.23;2.03;;;22.60;91.60;;;;;;5033114;28;20479;-68
2022/08/14 08:17:09;;;;;;;2.33;2.10;;;22.80;91.50;;;;;;5030941;28;20486;-69
2022/08/14 08:19:37;;;;;;;2.20;2.00;;;22.90;91.70;;;;;;5031204;28;20570;-68
2022/08/14 08:22:05;;;;;;;2.30;2.13;;;23.00;92.10;;;;;;5031558;28;20490;-67
2022/08/14 08:24:31;;;;;;;2.10;1.90;;;23.10;90.80;;;;;;5030197;28;20470;-68
2022/08/14 08:26:58;;;;;;;2.53;2.33;;;23.20;90.90;;;;;;5031156;28;20824;-68
2022/08/14 08:29:26;;;;;;;2.10;2.00;;;23.30;91.80;;;;;;5032750;28;20463;-68
2022/08/14 08:31:53;;;;;;;2.50;2.30;;;23.40;91.70;;;;;;5031863;28;20699;-67
2022/08/14 08:34:20;;;;;;;2.80;2.60;;;23.50;91.70;;;;;;5031712;28;20471;-67
2022/08/14 08:36:47;;;;;;;2.27;2.07;;;23.60;91.80;;;;;;5032092;28;20485;-68
2022/08/14 08:39:14;;;;;;;2.40;2.20;;;23.80;91.00;;;;;;5031110;28;21099;-67
2022/08/14 08:41:43;;;;;;;2.50;2.30;;;23.90;91.40;;;;;;5032348;28;20498;-68
2022/08/14 08:44:09;;;;;;;1.93;1.83;;;24.10;88.70;;;;;;5031155;28;20465;-68
2022/08/14 08:46:38;;;;;;;2.17;1.97;;;24.20;88.50;;;;;;5032092;28;20603;-68
2022/08/14 08:49:06;;;;;;;2.60;2.40;;;24.30;89.30;;;;;;5031105;28;20472;-67
2022/08/14 08:51:37;;;;;;;2.50;2.30;;;24.40;90.00;;;;;;5031702;28;20456;-68
2022/08/14 08:54:07;;;;;;;2.40;2.20;;;24.50;91.20;;;;;;5031114;28;20464;-68
2022/08/14 08:56:39;;;;;;;2.23;2.10;;;24.70;89.40;;;;;;5030849;28;20506;-68
2022/08/14 08:59:17;;;;;;;2.30;2.10;;;24.70;90.30;;;;;;5031861;28;20494;-67
2022/08/14 09:01:50;;;;;;;2.80;2.60;;;24.90;89.20;;;;;;5031847;28;20994;-68
2022/08/14 09:04:17;;;;;;;2.47;2.27;;;25.00;89.80;;;;;;5031308;28;20472;-69
2022/08/14 09:06:45;;;;;;;2.83;2.27;;;25.10;89.40;;;;;;5031918;28;20491;-68
2022/08/14 09:09:19;;;;;;;2.80;2.60;;;25.20;88.10;;;;;;5030937;28;20463;-68
2022/08/14 09:11:46;;;;;;;2.00;1.87;;;25.30;87.40;;;;;;5031848;28;20502;-68
2022/08/14 09:14:13;;;;;;;2.43;2.23;;;25.40;86.90;;;;;;5029597;28;20823;-68
2022/08/14 09:16:41;;;;;;;2.53;2.33;;;25.60;88.80;;;;;;5030364;28;20476;-68
2022/08/14 09:19:09;;;;;;;3.63;3.30;;;25.70;88.00;;;;;;5031650;28;20461;-68
2022/08/14 09:21:39;;;;;;;2.53;2.33;;;25.80;86.90;;;;;;5031464;28;20484;-68
2022/08/14 09:24:06;;;;;;;2.60;2.40;;;25.90;90.20;;;;;;5030718;28;20467;-69
2022/08/14 09:26:34;;;;;;;2.53;2.17;;;26.00;89.30;;;;;;5031009;28;20491;-69
2022/08/14 09:29:01;;;;;;;2.33;2.13;;;26.10;89.50;;;;;;5030237;28;20837;-69
2022/08/14 09:31:29;;;;;;;2.27;2.07;;;26.20;88.20;;;;;;5031748;28;20511;-69
2022/08/14 09:34:07;;;;;;;2.30;2.10;;;26.30;83.50;;;;;;5031616;28;20507;-69
2022/08/14 09:37:00;;;;;;;2.63;2.43;;;26.30;83.10;;;;;;5031461;28;20897;-69
2022/08/14 09:39:44;;;;;;;2.70;2.50;;;26.30;84.70;;;;;;5031979;28;20464;-69
2022/08/14 09:42:28;;;;;;;2.60;2.40;;;26.40;88.80;;;;;;5031690;28;20855;-70
2022/08/14 09:45:07;;;;;;;2.20;2.00;;;26.50;83.70;;;;;;5031203;28;20465;-70
2022/08/14 09:47:41;;;;;;;2.70;2.50;;;26.60;86.10;;;;;;5031316;28;21230;-70
2022/08/14 09:50:20;;;;;;;3.10;2.80;;;26.80;86.90;;;;;;5030883;28;20543;-70
2022/08/14 09:52:52;;;;;;;2.63;2.43;;;26.90;86.20;;;;;;5030978;28;20895;-69
2022/08/14 09:55:21;;;;;;;2.30;2.10;;;27.00;84.40;;;;;;5030022;28;20476;-70
2022/08/14 09:57:50;;;;;;;3.27;2.87;;;27.10;82.50;;;;;;5028302;28;20488;-70
2022/08/14 10:00:18;;;;;;;2.60;2.40;;;27.20;86.60;;;;;;5030740;28;20894;-70
2022/08/14 10:02:55;;;;;;;2.60;2.40;;;27.40;85.70;;;;;;5029334;28;20564;-70
2022/08/14 10:05:29;;;;;;;2.60;2.40;;;27.50;85.00;;;;;;5029802;28;20547;-70
2022/08/14 10:07:58;;;;;;;2.50;2.30;;;27.60;83.80;;;;;;5030467;28;20954;-70
2022/08/14 10:10:30;;;;;;;2.40;2.23;;;27.70;86.20;;;;;;5028274;28;20834;-70
2022/08/14 10:12:58;;;;;;;2.80;2.60;;;27.90;83.80;;;;;;5030289;28;20471;-70
2022/08/14 10:15:26;;;;;;;2.60;2.30;;;28.00;85.20;;;;;;5029127;28;20464;-70
2022/08/14 10:18:08;;;;;;;2.40;2.20;;;28.10;86.30;;;;;;5029866;28;20483;-70
2022/08/14 10:20:40;;;;;;;4.57;2.80;;;28.20;82.30;;;;;;5030658;28;20467;-70
2022/08/14 10:23:12;;;;;;;3.10;2.60;;;28.20;82.50;;;;;;5030436;28;20449;-70
2022/08/14 10:25:42;;;;;;;3.43;2.90;;;28.20;81.00;;;;;;5029791;28;20464;-70
2022/08/14 10:28:14;;;;;;;2.83;2.63;;;28.30;80.10;;;;;;5029377;28;20999;-70
2022/08/14 10:30:41;;;;;;;2.70;2.50;;;28.30;79.00;;;;;;5030251;28;20471;-70
2022/08/14 10:33:08;;;;;;;2.83;2.63;;;28.30;81.00;;;;;;5029798;28;20460;-70
2022/08/14 10:35:43;;;;;;;3.37;2.70;;;28.40;81.20;;;;;;5030280;28;20827;-70
2022/08/14 10:38:11;;;;;;;2.80;2.60;;;28.50;82.80;;;;;;5029859;28;20984;-70
2022/08/14 10:40:38;;;;;;;2.97;2.77;;;28.60;84.50;;;;;;5030400;28;20463;-70
2022/08/14 10:43:17;;;;;;;2.73;2.53;;;28.80;81.60;;;;;;5027524;28;20575;-70
2022/08/14 10:45:57;;;;;;;4.17;3.77;;;29.10;83.50;;;;;;5028035;28;20952;-70
2022/08/14 10:48:24;;;;;;;3.77;3.43;;;29.10;79.80;;;;;;5030113;28;21015;-70
2022/08/14 10:50:52;;;;;;;4.30;3.90;;;29.30;75.70;;;;;;5030546;28;20468;-70
2022/08/14 10:53:31;;;;;;;5.87;4.80;;;29.20;78.90;;;;;;5029706;28;20461;-70
2022/08/14 10:55:59;;;;;;;4.10;3.80;;;29.40;77.40;;;;;;5029617;28;20488;-70
2022/08/14 10:58:28;;;;;;;3.63;3.30;;;29.40;77.30;;;;;;5030278;28;20850;-70
2022/08/14 11:00:56;;;;;;;4.10;3.77;;;29.50;78.80;;;;;;5029939;28;20468;-70
2022/08/14 11:03:24;;;;;;;4.30;3.83;;;29.50;79.00;;;;;;5027099;28;20461;-69
2022/08/14 11:05:52;;;;;;;3.03;2.70;;;29.60;77.70;;;;;;5029391;28;20465;-70
2022/08/14 11:08:32;;;;;;;3.70;3.40;;;29.60;79.70;;;;;;5028995;28;20853;-69
2022/08/14 11:11:01;;;;;;;4.40;4.00;;;29.70;75.90;;;;;;5097433;23;20488;-69
2022/08/14 11:13:31;;;;;;;3.50;2.87;;;29.70;76.10;;;;;;5029093;28;20873;-69
2022/08/14 11:15:59;;;;;;;2.63;2.43;;;29.80;78.50;;;;;;5029566;28;20982;-69
2022/08/14 11:18:28;;;;;;;2.97;2.73;;;29.80;75.00;;;;;;5029223;28;20564;-69
2022/08/14 11:20:58;;;;;;;2.80;2.60;;;29.70;74.70;;;;;;5032244;28;20518;-70
2022/08/14 11:23:27;;;;;;;3.33;3.03;;;29.70;75.60;;;;;;5034327;28;20494;-69
2022/08/14 11:25:57;;;;;;;3.07;2.87;;;29.80;77.10;;;;;;5034786;28;20952;-70
2022/08/14 11:28:26;;;;;;;2.87;2.67;;;30.00;78.40;;;;;;5033944;28;20481;-69
2022/08/14 11:30:55;;;;;;;2.60;2.40;;;30.10;75.90;;;;;;5033789;28;20472;-69
2022/08/14 11:33:23;;;;;;;2.97;2.77;;;30.20;75.20;;;;;;5033722;28;20944;-70
2022/08/14 11:35:50;;;;;;;2.70;2.50;;;30.10;74.70;;;;;;5033544;28;20473;-68
2022/08/14 11:38:20;;;;;;;2.90;2.70;;;30.10;71.40;;;;;;5033593;28;20484;-69
2022/08/14 11:40:47;;;;;;;2.83;2.63;;;29.80;74.00;;;;;;5033808;28;20493;-70
2022/08/14 11:43:17;;;;;;;2.63;2.43;;;29.80;73.70;;;;;;5033539;28;20512;-70
2022/08/14 11:45:48;;;;;;;2.70;2.50;;;29.90;74.50;;;;;;5033359;28;20983;-69
2022/08/14 11:48:17;;;;;;;2.67;2.47;;;30.00;72.10;;;;;;5033356;28;20489;-70
2022/08/14 11:50:45;;;;;;;2.80;2.43;;;30.10;74.10;;;;;;5031258;28;20457;-68
2022/08/14 11:53:24;;;;;;;2.53;2.33;;;30.20;74.00;;;;;;5030152;28;20465;-67
2022/08/14 11:55:56;;;;;;;3.77;3.47;;;30.30;70.70;;;;;;5031199;28;20479;-69
2022/08/14 11:58:29;;;;;;;2.93;2.73;;;30.40;71.10;;;;;;5030812;28;20905;-69
2022/08/14 12:01:00;;;;;;;2.40;2.23;;;30.40;69.90;;;;;;5031035;28;20464;-68
2022/08/14 12:03:38;;;;;;;2.93;2.50;;;30.40;72.90;;;;;;5021249;28;20870;-69
2022/08/14 12:06:06;;;;;;;2.97;2.77;;;30.50;72.90;;;;;;5015761;28;20557;-68
2022/08/14 12:08:34;;;;;;;2.67;2.47;;;30.60;72.10;;;;;;5006249;28;20471;-68
2022/08/14 12:11:02;;;;;;;2.50;2.30;;;30.80;74.90;;;;;;5006158;28;20485;-68
2022/08/14 12:13:32;;;;;;;2.63;2.43;;;30.90;71.80;;;;;;5005308;28;20497;-68
2022/08/14 12:16:01;;;;;;;2.73;2.53;;;31.10;72.00;;;;;;5005881;28;20553;-69
2022/08/14 12:18:33;;;;;;;2.60;2.40;;;31.20;73.80;;;;;;5005731;28;20512;-69
2022/08/14 12:21:12;;;;;;;2.50;2.30;;;31.40;70.50;;;;;;5006094;28;20465;-68
2022/08/14 12:23:39;;;;;;;2.60;2.40;;;31.40;71.90;;;;;;5010455;28;20492;-69
2022/08/14 12:26:07;;;;;;;3.63;2.57;;;31.30;69.50;;;;;;5010320;28;20965;-68
2022/08/14 12:28:37;;;;;;;2.53;2.20;;;31.40;70.90;;;;;;5010731;28;20548;-68
2022/08/14 12:31:15;;;;;;;2.30;2.10;;;31.50;70.70;;;;;;5009506;28;20462;-69
2022/08/14 12:33:43;;;;;;;2.30;2.20;;;31.40;66.20;;;;;;5010239;28;20488;-69
2022/08/14 12:36:20;;;;;;;2.40;2.20;;;31.50;70.90;;;;;;5010008;28;20901;-68
2022/08/14 12:38:49;;;;;;;2.47;2.27;;;31.60;70.00;;;;;;5010545;28;20473;-67
2022/08/14 12:41:19;;;;;;;2.07;1.90;;;31.70;65.00;;;;;;5009689;28;20477;-68
2022/08/14 12:43:52;;;;;;;2.40;2.20;;;31.50;62.40;;;;;;5009909;28;21182;-68
2022/08/14 12:46:27;;;;;;;2.20;2.00;;;31.50;65.80;;;;;;5009906;28;20815;-68
2022/08/14 12:48:55;;;;;;;2.50;2.30;;;31.50;68.70;;;;;;5010046;28;20488;-68
2022/08/14 12:51:25;;;;;;;2.60;2.40;;;31.60;70.50;;;;;;5010171;28;20481;-68
2022/08/14 12:53:53;;;;;;;1.70;1.60;;;31.70;68.40;;;;;;5009738;28;20552;-69
2022/08/14 12:56:21;;;;;;;2.60;2.40;;;31.80;67.50;;;;;;5009921;28;20555;-67
2022/08/14 12:58:50;;;;;;;1.80;1.70;;;31.80;66.00;;;;;;5010236;28;20477;-68
2022/08/14 13:01:21;;;;;;;2.20;2.00;;;31.90;66.40;;;;;;5010118;28;20462;-69
2022/08/14 13:03:48;;;;;;;1.93;1.83;;;31.90;66.40;;;;;;5009278;28;20493;-68
2022/08/14 13:06:16;;;;;;;1.70;1.60;;;32.00;65.80;;;;;;5009653;28;20868;-68
2022/08/14 13:08:43;;;;;;;1.80;1.70;;;32.10;58.90;;;;;;5010067;28;20468;-68
2022/08/14 13:11:12;;;;;;;1.70;1.60;;;31.90;60.20;;;;;;5010148;28;20796;-67
2022/08/14 13:13:43;;;;;;;1.60;1.50;;;31.90;62.00;;;;;;5009991;28;20465;-68
2022/08/14 13:16:15;;;;;;;1.90;1.80;;;32.00;65.60;;;;;;5009198;28;20502;-69